Impacts METAR Board INFO
IDs:

KRWF - Redwood Falls Muni, MN, US

Updated at: 2045 UTC 16 Dec 2017
Potential Impact None Slight Moderate High
Time16/08Z 16/09Z 16/10Z 16/11Z 16/12Z 16/13Z 16/14Z 16/15Z 16/16Z 16/17Z 16/18Z 16/19Z 16/20Z
VIS10 10 10 10 10 10 8 5 5 5 6 9 9
CIG-- 80 85 -- -- -- 75 75 75 6 -- -- --
CoverCLRBKNBKNCLRCLRCLROVCOVCOVCOVCFEWCLRCLR
FltCatVFRVFRVFRVFRVFRVFRVFRMVFRMVFRIFRVFRVFRVFR
WX--------------BRBRBRHZ----
WDir800140105005060103010350360
WSpd3 0 4 3 3 0 4 3 6 5 6 7 6
WGst-- -- -- -- -- -- -- -- -- -- -- -- --
Raw hourly METARs
KRWF 160753Z AUTO 08003KT 10SM CLR 00/M02 A2961 RMK AO2 SLP035 T00001017
KRWF 160853Z AUTO 00000KT 10SM BKN080 00/M02 A2962 RMK AO2 SLP038 T00001017 53002
KRWF 160953Z AUTO 14004KT 10SM BKN085 M01/M02 A2963 RMK AO2 SLP043 T10111022
KRWF 161053Z AUTO 01003KT 10SM CLR M01/M02 A2965 RMK AO2 SLP050 T10111022
KRWF 161153Z AUTO 05003KT 10SM CLR M02/M03 A2968 RMK AO2 SLP063 T10221033 10011 21022 53022
KRWF 161253Z AUTO 00000KT 10SM CLR M03/M03 A2972 RMK AO2 SLP077 T10281033
KRWF 161353Z AUTO 05004KT 8SM OVC075 M03/M04 A2976 RMK AO2 SLP088 T10281039
KRWF 161453Z AUTO 06003KT 5SM BR OVC075 M02/M03 A2978 RMK AO2 SLP097 T10221028 51033
KRWF 161604Z AUTO 01006KT 5SM BR SCT005 OVC075 00/M02 A2982 RMK AO2 T00001017
KRWF 161653Z AUTO 03005KT 5SM BR OVC006 00/M02 A2986 RMK AO2 SLP122 T00001017
KRWF 161753Z AUTO 01006KT 6SM HZ FEW008 02/M02 A2986 RMK AO2 SLP123 T00171017 10017 21033 51027
KRWF 161853Z AUTO 35007KT 9SM CLR 03/M01 A2988 RMK AO2 SLP128 T00331011
KRWF 161953Z AUTO 36006KT 9SM CLR 03/M01 A2989 RMK AO2 SLP131 T00281011